Time;durP1;ratioP1;P1;durP2;ratioP2;P2;SDS_P1;SDS_P2;PMS_P1;PMS_P2;Temp;Humidity;BMP_temperature;BMP_pressure;BME280_temperature;BME280_humidity;BME280_pressure;Samples;Min_cycle;Max_cycle;Signal;HPM_P1;HPM_P2
2022/04/07 00:01:10;;;;;;;;;;;21.90;46.90;;;;;;5094017;28;20350;-42
2022/04/07 00:03:37;;;;;;;;;;;21.90;46.90;;;;;;5093671;28;20387;-42
2022/04/07 00:06:09;;;;;;;;;;;21.90;46.90;;;;;;5087430;28;19924;-41
2022/04/07 00:08:36;;;;;;;;;;;21.90;46.90;;;;;;5082983;28;19950;-42
2022/04/07 00:11:03;;;;;;;;;;;21.90;46.90;;;;;;5093900;28;20006;-41
2022/04/07 00:13:30;;;;;;;;;;;21.90;46.90;;;;;;5093820;28;19998;-42
2022/04/07 00:15:59;;;;;;;;;;;21.90;46.90;;;;;;5075682;28;20395;-42
2022/04/07 00:18:27;;;;;;;;;;;21.90;46.90;;;;;;5093524;28;19981;-41
2022/04/07 00:20:54;;;;;;;;;;;21.90;46.90;;;;;;5089502;28;19970;-42
2022/04/07 00:23:21;;;;;;;;;;;21.90;46.90;;;;;;5081444;28;19977;-43
2022/04/07 00:25:48;;;;;;;;;;;21.90;46.90;;;;;;5097442;28;19978;-42
2022/04/07 00:28:15;;;;;;;;;;;21.90;46.90;;;;;;5097696;28;19962;-43
2022/04/07 00:30:44;;;;;;;;;;;21.90;47.50;;;;;;5079718;28;19927;-43
2022/04/07 00:33:11;;;;;;;;;;;21.90;46.90;;;;;;5097459;28;20370;-42
2022/04/07 00:35:38;;;;;;;;;;;21.90;46.90;;;;;;5097237;28;19928;-42
2022/04/07 00:38:05;;;;;;;;;;;21.90;46.90;;;;;;5059791;28;19928;-42
2022/04/07 00:40:32;;;;;;;;;;;21.90;46.90;;;;;;5077122;28;19931;-42
2022/04/07 00:42:59;;;;;;;;;;;21.90;46.90;;;;;;5059423;28;19982;-42
2022/04/07 00:45:26;;;;;;;;;;;21.90;46.90;;;;;;5077023;28;19929;-42
2022/04/07 00:47:53;;;;;;;;;;;21.90;46.90;;;;;;5077017;28;19925;-42
2022/04/07 00:50:20;;;;;;;;;;;21.90;46.90;;;;;;5076520;28;19978;-42
2022/04/07 00:52:57;;;;;;;;;;;21.90;46.90;;;;;;5092581;28;19928;-43
2022/04/07 00:55:25;;;;;;;;;;;21.90;46.90;;;;;;5076596;28;20384;-42
2022/04/07 00:57:53;;;;;;;;;;;21.90;46.90;;;;;;5076529;28;19928;-41
2022/04/07 01:00:20;;;;;;;;;;;21.90;46.90;;;;;;5077063;28;19924;-42
2022/04/07 01:02:47;;;;;;;;;;;21.90;46.90;;;;;;5076756;28;19928;-42
2022/04/07 01:05:23;;;;;;;;;;;21.90;46.90;;;;;;5076725;28;19964;-42
2022/04/07 01:07:51;;;;;;;;;;;21.90;46.90;;;;;;5076512;28;20362;-42
2022/04/07 01:10:19;;;;;;;;;;;21.80;46.80;;;;;;5094936;28;19956;-43
2022/04/07 01:12:46;;;;;;;;;;;21.90;46.90;;;;;;5096473;28;19971;-48
2022/04/07 01:15:13;;;;;;;;;;;21.80;46.90;;;;;;5096608;28;19990;-42
2022/04/07 01:17:39;;;;;;;;;;;21.80;46.90;;;;;;5096448;28;19974;-44
2022/04/07 01:20:07;;;;;;;;;;;21.80;46.80;;;;;;5096349;28;19956;-42
2022/04/07 01:22:35;;;;;;;;;;;21.80;46.90;;;;;;5085190;28;19924;-41
2022/04/07 01:25:02;;;;;;;;;;;21.80;46.90;;;;;;5091165;28;19970;-44
2022/04/07 01:27:29;;;;;;;;;;;21.80;46.80;;;;;;5096272;28;19931;-43
2022/04/07 01:29:57;;;;;;;;;;;21.80;46.90;;;;;;5096515;28;19932;-42
2022/04/07 01:32:30;;;;;;;;;;;21.80;46.90;;;;;;5096118;28;19954;-45
2022/04/07 01:34:58;;;;;;;;;;;21.80;46.90;;;;;;5095215;28;19974;-43
2022/04/07 01:37:25;;;;;;;;;;;21.80;46.90;;;;;;5095558;28;19932;-43
2022/04/07 01:39:52;;;;;;;;;;;21.80;46.90;;;;;;5095134;28;19924;-42
2022/04/07 01:42:19;;;;;;;;;;;21.80;46.90;;;;;;5096301;28;19932;-41
2022/04/07 01:44:48;;;;;;;;;;;21.80;46.90;;;;;;5096066;28;19955;-41
2022/04/07 01:47:18;;;;;;;;;;;21.80;46.90;;;;;;5095896;28;19979;-43
2022/04/07 01:49:45;;;;;;;;;;;21.80;46.90;;;;;;5095792;28;19986;-42
2022/04/07 01:52:13;;;;;;;;;;;21.80;46.90;;;;;;5095270;28;19924;-42
2022/04/07 01:54:43;;;;;;;;;;;21.80;46.90;;;;;;5095217;28;20273;-42
2022/04/07 01:57:11;;;;;;;;;;;21.80;46.90;;;;;;5078152;28;19928;-44
2022/04/07 01:59:38;;;;;;;;;;;21.80;46.90;;;;;;5095766;28;20018;-43
2022/04/07 02:02:05;;;;;;;;;;;21.80;46.90;;;;;;5095576;28;19924;-44
2022/04/07 02:04:51;;;;;;;;;;;21.80;46.90;;;;;;5095930;28;20345;-43
2022/04/07 02:07:18;;;;;;;;;;;21.80;46.90;;;;;;5090758;28;19971;-43
2022/04/07 02:09:44;;;;;;;;;;;21.80;46.90;;;;;;5083732;28;20492;-44
2022/04/07 02:12:11;;;;;;;;;;;21.80;46.90;;;;;;5095318;28;19928;-43
2022/04/07 02:14:39;;;;;;;;;;;21.80;46.90;;;;;;5095541;28;19924;-43
2022/04/07 02:17:06;;;;;;;;;;;21.80;46.90;;;;;;5095506;28;19930;-47
2022/04/07 02:19:33;;;;;;;;;;;21.80;46.90;;;;;;5095089;28;19963;-47
2022/04/07 02:22:00;;;;;;;;;;;21.80;46.90;;;;;;5094301;28;20426;-42
2022/04/07 02:24:27;;;;;;;;;;;21.80;47.50;;;;;;5079619;28;19931;-44
2022/04/07 02:26:54;;;;;;;;;;;21.80;46.90;;;;;;5095289;28;20410;-45
2022/04/07 02:29:20;;;;;;;;;;;21.80;46.90;;;;;;5077375;28;19930;-44
2022/04/07 02:31:47;;;;;;;;;;;21.80;47.50;;;;;;5095020;28;20021;-43
2022/04/07 02:34:15;;;;;;;;;;;21.80;46.90;;;;;;5094871;28;19924;-42
2022/04/07 02:36:42;;;;;;;;;;;21.80;46.90;;;;;;5077046;28;19954;-43
2022/04/07 02:39:09;;;;;;;;;;;21.80;46.90;;;;;;5093387;28;19926;-43
2022/04/07 02:41:36;;;;;;;;;;;21.80;46.90;;;;;;5077418;28;20345;-47
2022/04/07 02:44:03;;;;;;;;;;;21.80;46.90;;;;;;5094690;28;19959;-44
2022/04/07 02:46:30;;;;;;;;;;;21.80;46.90;;;;;;5076707;28;19974;-45
2022/04/07 02:48:57;;;;;;;;;;;21.80;46.90;;;;;;5095020;28;20300;-42
2022/04/07 02:51:24;;;;;;;;;;;21.80;46.90;;;;;;5094542;28;19924;-43
2022/04/07 02:53:57;;;;;;;;;;;21.80;46.90;;;;;;5093615;28;19978;-42
2022/04/07 02:56:27;;;;;;;;;;;21.80;46.90;;;;;;5075602;28;20410;-43
2022/04/07 02:58:55;;;;;;;;;;;21.80;46.90;;;;;;5076623;28;19980;-43
2022/04/07 03:01:28;;;;;;;;;;;21.80;46.90;;;;;;5094518;28;19928;-43
2022/04/07 03:03:55;;;;;;;;;;;21.80;46.90;;;;;;5094441;28;20285;-42
2022/04/07 03:06:22;;;;;;;;;;;21.80;46.90;;;;;;5094398;28;20383;-45
2022/04/07 03:08:50;;;;;;;;;;;21.80;46.90;;;;;;5082154;28;19924;-45
2022/04/07 03:11:17;;;;;;;;;;;21.80;46.90;;;;;;5089954;28;19956;-44
2022/04/07 03:13:44;;;;;;;;;;;21.80;46.90;;;;;;5076572;28;19959;-43
2022/04/07 03:16:11;;;;;;;;;;;21.80;46.90;;;;;;5094841;28;20348;-44
2022/04/07 03:18:38;;;;;;;;;;;21.80;46.90;;;;;;5094203;28;19974;-42
2022/04/07 03:21:05;;;;;;;;;;;21.80;46.90;;;;;;5093966;28;20345;-48
2022/04/07 03:23:32;;;;;;;;;;;21.80;46.90;;;;;;5086219;28;19931;-45
2022/04/07 03:26:00;;;;;;;;;;;21.80;46.90;;;;;;5067984;28;19977;-44
2022/04/07 03:28:27;;;;;;;;;;;21.80;46.90;;;;;;5094889;28;19969;-44
2022/04/07 03:30:53;;;;;;;;;;;21.80;46.90;;;;;;5094029;28;20014;-45
2022/04/07 03:33:21;;;;;;;;;;;21.80;46.90;;;;;;5094483;28;19924;-47
2022/04/07 03:35:48;;;;;;;;;;;21.80;46.90;;;;;;5093966;28;19931;-41
2022/04/07 03:38:15;;;;;;;;;;;21.80;46.90;;;;;;5072147;28;19925;-41
2022/04/07 03:40:42;;;;;;;;;;;21.80;46.90;;;;;;5082060;28;19963;-41
2022/04/07 03:43:09;;;;;;;;;;;21.80;46.90;;;;;;5094204;28;20336;-41
2022/04/07 03:45:36;;;;;;;;;;;21.70;46.90;;;;;;5093764;28;19924;-42
2022/04/07 03:48:03;;;;;;;;;;;21.80;46.90;;;;;;5093789;28;20375;-42
2022/04/07 03:50:30;;;;;;;;;;;21.70;46.90;;;;;;5093690;28;19967;-42
2022/04/07 03:52:57;;;;;;;;;;;21.70;46.90;;;;;;5093925;28;19973;-42
2022/04/07 03:55:24;;;;;;;;;;;21.70;46.90;;;;;;5092776;28;19924;-42
2022/04/07 03:57:51;;;;;;;;;;;21.70;46.90;;;;;;5095789;28;19990;-42
2022/04/07 04:00:19;;;;;;;;;;;21.70;46.90;;;;;;5098263;28;20280;-42
2022/04/07 04:02:46;;;;;;;;;;;21.70;46.90;;;;;;5098445;28;19924;-42
2022/04/07 04:05:13;;;;;;;;;;;21.70;46.90;;;;;;5098451;28;19924;-42
2022/04/07 04:07:40;;;;;;;;;;;21.70;46.90;;;;;;5098072;28;20334;-41
2022/04/07 04:10:07;;;;;;;;;;;21.70;46.90;;;;;;5096241;28;19970;-41
2022/04/07 04:12:34;;;;;;;;;;;21.70;46.90;;;;;;5097658;28;19928;-42
2022/04/07 04:15:02;;;;;;;;;;;21.70;46.90;;;;;;5097912;28;19970;-43
2022/04/07 04:17:32;;;;;;;;;;;21.70;46.90;;;;;;5097606;28;19974;-41
2022/04/07 04:20:00;;;;;;;;;;;21.70;46.90;;;;;;5098028;28;19924;-41
2022/04/07 04:22:28;;;;;;;;;;;21.70;46.90;;;;;;5097639;28;19963;-42
2022/04/07 04:24:55;;;;;;;;;;;21.70;46.90;;;;;;5083491;28;20380;-43
2022/04/07 04:27:22;;;;;;;;;;;21.70;46.90;;;;;;5095566;28;19925;-42
2022/04/07 04:29:49;;;;;;;;;;;21.70;46.90;;;;;;5097362;28;19970;-42
2022/04/07 04:32:16;;;;;;;;;;;21.70;46.90;;;;;;5097144;28;20391;-42
2022/04/07 04:34:43;;;;;;;;;;;21.70;46.90;;;;;;5097173;28;20402;-42
2022/04/07 04:37:10;;;;;;;;;;;21.70;46.90;;;;;;5097129;28;19977;-42
2022/04/07 04:39:37;;;;;;;;;;;21.70;47.50;;;;;;5095674;28;19953;-42
2022/04/07 04:42:05;;;;;;;;;;;21.70;46.90;;;;;;5096597;28;20280;-41
2022/04/07 04:44:32;;;;;;;;;;;21.70;46.90;;;;;;5097350;28;20291;-41
2022/04/07 04:46:59;;;;;;;;;;;21.70;46.90;;;;;;5097046;28;19946;-42
2022/04/07 04:49:26;;;;;;;;;;;21.70;46.90;;;;;;5097338;28;19932;-42
2022/04/07 04:51:53;;;;;;;;;;;21.70;46.90;;;;;;5097138;28;19924;-42
2022/04/07 04:54:20;;;;;;;;;;;21.80;47.00;;;;;;5090530;28;20296;-42
2022/04/07 04:56:47;;;;;;;;;;;21.70;46.90;;;;;;5087603;28;19967;-44
2022/04/07 04:59:14;;;;;;;;;;;21.70;46.90;;;;;;5096763;28;19975;-43
2022/04/07 05:01:41;;;;;;;;;;;21.70;46.90;;;;;;5097114;28;19978;-42
2022/04/07 05:04:08;;;;;;;;;;;21.70;46.90;;;;;;5096746;28;19971;-42
2022/04/07 05:06:35;;;;;;;;;;;21.70;46.90;;;;;;5097006;28;19994;-43
2022/04/07 05:09:02;;;;;;;;;;;21.70;46.90;;;;;;5094315;28;19969;-43
2022/04/07 05:11:29;;;;;;;;;;;21.70;46.90;;;;;;5095672;28;19963;-42
2022/04/07 05:13:56;;;;;;;;;;;21.70;46.90;;;;;;5096626;28;19924;-45
2022/04/07 05:16:23;;;;;;;;;;;21.70;46.90;;;;;;5096761;28;20339;-48
2022/04/07 05:18:50;;;;;;;;;;;21.70;46.90;;;;;;5095963;28;20292;-43
2022/04/07 05:21:17;;;;;;;;;;;21.70;46.90;;;;;;5096062;28;19924;-42
2022/04/07 05:23:44;;;;;;;;;;;21.70;46.90;;;;;;5095804;28;19924;-42
2022/04/07 05:26:14;;;;;;;;;;;21.70;46.90;;;;;;5094323;28;20023;-44
2022/04/07 05:28:42;;;;;;;;;;;21.70;46.90;;;;;;5096205;28;19931;-45
2022/04/07 05:31:09;;;;;;;;;;;21.70;46.90;;;;;;5096108;28;19959;-48
2022/04/07 05:33:36;;;;;;;;;;;21.80;47.10;;;;;;5096082;28;20325;-44
2022/04/07 05:36:03;;;;;;;;;;;21.80;47.00;;;;;;5096057;28;19969;-43
2022/04/07 05:38:30;;;;;;;;;;;21.80;47.10;;;;;;5077560;28;19924;-43
2022/04/07 05:40:57;;;;;;;;;;;21.80;47.10;;;;;;5094300;28;20418;-42
2022/04/07 05:43:24;;;;;;;;;;;21.80;47.10;;;;;;5093842;28;19990;-42
2022/04/07 05:45:52;;;;;;;;;;;21.80;47.10;;;;;;5116112;28;19972;-42
2022/04/07 05:48:19;;;;;;;;;;;21.80;47.10;;;;;;5116343;28;19934;-45
2022/04/07 05:50:46;;;;;;;;;;;21.80;47.70;;;;;;5106289;28;20023;-43
2022/04/07 05:53:13;;;;;;;;;;;21.70;47.00;;;;;;5094738;28;19928;-42
2022/04/07 05:55:40;;;;;;;;;;;21.70;47.00;;;;;;5094765;28;19994;-44
2022/04/07 05:58:08;;;;;;;;;;;21.70;47.10;;;;;;5094063;28;19924;-45
2022/04/07 06:00:38;;;;;;;;;;;21.70;47.10;;;;;;5095743;28;19924;-41
2022/04/07 06:03:05;;;;;;;;;;;21.70;47.10;;;;;;5095313;28;19924;-47
2022/04/07 06:05:33;;;;;;;;;;;21.80;47.10;;;;;;5095063;28;19924;-47
2022/04/07 06:08:00;;;;;;;;;;;21.70;47.10;;;;;;5095275;28;20399;-42
2022/04/07 06:10:27;;;;;;;;;;;21.80;47.10;;;;;;5090172;28;20338;-46
2022/04/07 06:13:26;;;;;;;;;;;21.80;47.30;;;;;;5069857;28;19971;-52
2022/04/07 06:16:03;;;;;;;;;;;21.90;49.40;;;;;;5075646;28;20333;-52
2022/04/07 06:19:03;;;;;;;;;;;22.00;50.70;;;;;;5061129;28;20440;-52
2022/04/07 06:21:43;;;;;;;;;;;22.00;51.50;;;;;;5065753;28;19932;-55
2022/04/07 06:24:41;;;;;;;;;;;22.20;52.00;;;;;;5054018;28;20035;-56
2022/04/07 06:30:27;;;;;;;;;;;22.30;52.60;;;;;;5084660;28;19925;-53
2022/04/07 06:33:12;;;;;;;;;;;22.40;52.60;;;;;;5084676;28;19997;-52
2022/04/07 06:36:08;;;;;;;;;;;22.50;53.30;;;;;;5077331;28;20315;-49
2022/04/07 06:38:38;;;;;;;;;;;22.50;52.90;;;;;;5091368;28;20442;-50
2022/04/07 06:41:41;;;;;;;;;;;22.60;53.20;;;;;;5082882;28;20442;-45
2022/04/07 06:44:35;;;;;;;;;;;22.60;53.50;;;;;;5088162;28;19928;-49
2022/04/07 06:47:27;;;;;;;;;;;22.70;53.50;;;;;;5081750;28;20022;-49
2022/04/07 06:50:19;;;;;;;;;;;22.70;53.70;;;;;;5091982;28;19970;-49
2022/04/07 06:52:48;;;;;;;;;;;22.70;54.20;;;;;;5092321;28;19931;-52
2022/04/07 06:55:25;;;;;;;;;;;22.80;54.40;;;;;;5090268;28;20344;-45
2022/04/07 06:58:14;;;;;;;;;;;22.80;54.50;;;;;;5088527;28;19985;-54
2022/04/07 07:01:02;;;;;;;;;;;22.80;54.60;;;;;;5061943;28;20386;-49
2022/04/07 07:04:12;;;;;;;;;;;22.80;54.40;;;;;;5088730;28;19919;-47
2022/04/07 07:10:22;;;;;;;;;;;22.90;54.60;;;;;;5083598;28;19966;-48
2022/04/07 07:13:06;;;;;;;;;;;23.00;54.60;;;;;;5090752;28;19930;-53
2022/04/07 07:15:55;;;;;;;;;;;23.00;54.40;;;;;;5075182;28;20011;-56
2022/04/07 07:22:06;;;;;;;;;;;23.10;54.50;;;;;;5089582;28;19924;-51
2022/04/07 07:25:07;;;;;;;;;;;23.10;54.50;;;;;;5091737;28;19924;-49
2022/04/07 07:31:15;;;;;;;;;;;23.20;54.50;;;;;;5089038;28;20149;-47
2022/04/07 07:33:45;;;;;;;;;;;23.30;54.70;;;;;;5073173;28;20463;-50
2022/04/07 07:36:19;;;;;;;;;;;23.30;54.50;;;;;;5072153;28;19931;-59
2022/04/07 07:39:15;;;;;;;;;;;23.30;54.70;;;;;;5080713;28;19985;-59
2022/04/07 07:42:15;;;;;;;;;;;23.30;54.70;;;;;;5081256;28;19962;-61
2022/04/07 07:44:43;;;;;;;;;;;23.30;54.70;;;;;;5073118;28;20018;-63
2022/04/07 07:47:25;;;;;;;;;;;23.40;54.80;;;;;;5060582;28;19928;-57
2022/04/07 07:53:30;;;;;;;;;;;23.50;54.80;;;;;;5090868;28;20018;-50
2022/04/07 07:56:21;;;;;;;;;;;23.50;54.80;;;;;;5083004;28;19928;-57
2022/04/07 08:02:14;;;;;;;;;;;23.60;55.20;;;;;;5077712;28;19935;-45
2022/04/07 08:04:41;;;;;;;;;;;23.60;55.20;;;;;;5090496;28;20007;-61
2022/04/07 08:07:08;;;;;;;;;;;23.60;55.30;;;;;;5086845;28;19930;-62
2022/04/07 08:09:35;;;;;;;;;;;23.70;55.30;;;;;;5088003;28;20371;-56
2022/04/07 08:12:02;;;;;;;;;;;23.70;55.40;;;;;;5092020;28;20409;-53
2022/04/07 08:14:30;;;;;;;;;;;23.70;55.40;;;;;;5076564;28;19978;-54
2022/04/07 08:17:22;;;;;;;;;;;23.70;55.30;;;;;;5088087;28;19931;-57
2022/04/07 08:20:11;;;;;;;;;;;23.70;55.40;;;;;;5090808;28;19975;-50
2022/04/07 08:22:58;;;;;;;;;;;23.70;55.60;;;;;;5085672;28;20415;-44
2022/04/07 08:29:05;;;;;;;;;;;23.80;55.50;;;;;;5074821;28;20263;-45
2022/04/07 08:42:16;;;;;;;;;;;23.80;55.50;;;;;;5089827;28;20400;-46
2022/04/07 08:48:32;;;;;;;;;;;23.80;55.60;;;;;;5088080;28;19934;-56
2022/04/07 08:57:58;;;;;;;;;;;23.80;56.30;;;;;;5089129;28;20345;-53
2022/04/07 09:00:34;;;;;;;;;;;23.80;56.60;;;;;;5089502;28;19924;-59
2022/04/07 09:06:39;;;;;;;;;;;23.80;57.40;;;;;;5093525;28;19928;-50
2022/04/07 09:09:20;;;;;;;;;;;23.70;57.10;;;;;;5090817;28;19969;-59
2022/04/07 09:12:38;;;;;;;;;;;23.70;57.40;;;;;;5093675;28;20469;-51
2022/04/07 09:15:48;;;;;;;;;;;23.70;57.70;;;;;;5091337;28;19928;-53
2022/04/07 09:18:47;;;;;;;;;;;23.80;57.70;;;;;;5077229;28;19932;-52
2022/04/07 09:21:44;;;;;;;;;;;23.80;57.50;;;;;;5092353;28;20351;-55
2022/04/07 09:27:50;;;;;;;;;;;23.90;57.30;;;;;;5074669;28;20689;-54
2022/04/07 09:30:38;;;;;;;;;;;23.90;57.30;;;;;;5092615;28;19919;-55
2022/04/07 09:33:05;;;;;;;;;;;23.90;57.20;;;;;;5093465;28;19973;-53
2022/04/07 09:35:53;;;;;;;;;;;23.90;57.50;;;;;;5090655;28;20689;-57
2022/04/07 09:38:32;;;;;;;;;;;23.90;57.50;;;;;;5089346;28;19924;-56
2022/04/07 09:41:20;;;;;;;;;;;23.90;57.40;;;;;;5088804;28;19935;-56
2022/04/07 09:43:54;;;;;;;;;;;24.00;57.60;;;;;;5089544;28;19928;-53
2022/04/07 09:46:21;;;;;;;;;;;23.90;57.40;;;;;;5091146;28;19936;-53
2022/04/07 09:48:59;;;;;;;;;;;24.00;57.10;;;;;;5088921;28;19928;-58
2022/04/07 09:51:29;;;;;;;;;;;24.00;56.50;;;;;;5093013;28;19924;-57
2022/04/07 09:53:57;;;;;;;;;;;23.90;55.80;;;;;;5092606;28;20022;-53
2022/04/07 09:56:27;;;;;;;;;;;23.90;55.30;;;;;;5092265;28;19928;-55
2022/04/07 09:59:07;;;;;;;;;;;23.90;55.00;;;;;;5087897;28;20023;-50
2022/04/07 10:01:38;;;;;;;;;;;23.90;54.60;;;;;;5094738;28;20015;-55
2022/04/07 10:04:06;;;;;;;;;;;23.90;54.40;;;;;;5091062;28;20398;-58
2022/04/07 10:06:34;;;;;;;;;;;23.90;54.20;;;;;;5090844;28;19964;-51
2022/04/07 10:09:02;;;;;;;;;;;23.90;54.10;;;;;;5092836;28;19993;-56
2022/04/07 10:11:32;;;;;;;;;;;23.90;53.90;;;;;;5093444;28;20027;-54
2022/04/07 10:14:00;;;;;;;;;;;23.90;53.40;;;;;;5091252;28;19932;-58
2022/04/07 10:16:45;;;;;;;;;;;23.90;53.20;;;;;;5090407;28;19963;-57
2022/04/07 10:19:28;;;;;;;;;;;23.90;53.20;;;;;;5092152;28;19978;-59
2022/04/07 10:21:58;;;;;;;;;;;23.90;53.10;;;;;;5092550;28;19954;-51
2022/04/07 10:24:45;;;;;;;;;;;24.00;53.20;;;;;;5093000;28;20448;-47
2022/04/07 10:27:44;;;;;;;;;;;24.00;52.80;;;;;;5090575;28;20514;-46
2022/04/07 10:30:38;;;;;;;;;;;24.10;52.50;;;;;;5083496;28;20019;-49
2022/04/07 10:34:04;;;;;;;;;;;24.10;52.20;;;;;;5075965;28;19960;-59
2022/04/07 10:36:36;;;;;;;;;;;24.10;52.20;;;;;;5029622;28;19929;-48
2022/04/07 10:39:10;;;;;;;;;;;24.10;52.70;;;;;;5026950;28;20039;-48
2022/04/07 10:41:36;;;;;;;;;;;24.10;53.00;;;;;;5029409;28;20024;-49
2022/04/07 10:44:08;;;;;;;;;;;24.10;53.20;;;;;;5030814;28;19925;-49
2022/04/07 10:46:35;;;;;;;;;;;24.10;53.20;;;;;;5014391;28;20355;-47
2022/04/07 10:49:11;;;;;;;;;;;24.10;53.20;;;;;;5013520;28;20459;-48
2022/04/07 10:51:45;;;;;;;;;;;24.10;53.10;;;;;;5031799;28;19971;-49
2022/04/07 10:54:12;;;;;;;;;;;24.10;53.10;;;;;;5029483;28;19929;-48
2022/04/07 10:56:45;;;;;;;;;;;24.00;53.00;;;;;;5031961;28;20490;-50
2022/04/07 10:59:21;;;;;;;;;;;24.00;53.00;;;;;;5031244;28;19935;-48
2022/04/07 11:01:55;;;;;;;;;;;23.90;52.90;;;;;;5031878;28;20351;-54
2022/04/07 11:04:21;;;;;;;;;;;24.00;52.80;;;;;;5031566;28;20011;-55
2022/04/07 11:07:16;;;;;;;;;;;24.00;52.80;;;;;;5031851;28;19932;-56
2022/04/07 11:09:52;;;;;;;;;;;24.00;52.70;;;;;;5031917;28;20408;-53
2022/04/07 11:12:31;;;;;;;;;;;23.90;52.60;;;;;;5046599;28;19954;-48
2022/04/07 11:15:02;;;;;;;;;;;23.90;52.60;;;;;;5074365;28;19978;-48
2022/04/07 11:17:30;;;;;;;;;;;23.90;52.60;;;;;;5090446;28;20352;-48
2022/04/07 11:20:03;;;;;;;;;;;23.90;52.70;;;;;;5094446;28;19977;-50
2022/04/07 11:22:49;;;;;;;;;;;23.80;52.60;;;;;;5093878;28;19981;-48
2022/04/07 11:25:20;;;;;;;;;;;23.80;52.60;;;;;;5093741;28;20391;-47
2022/04/07 11:28:05;;;;;;;;;;;23.80;52.50;;;;;;5094124;28;19924;-52
2022/04/07 11:30:41;;;;;;;;;;;23.80;52.40;;;;;;5084695;28;20339;-54
2022/04/07 11:33:23;;;;;;;;;;;23.80;52.40;;;;;;5073661;28;19974;-55
2022/04/07 11:36:07;;;;;;;;;;;23.80;52.30;;;;;;5073909;28;19932;-52
2022/04/07 11:38:38;;;;;;;;;;;23.80;52.30;;;;;;5073807;28;19924;-58
2022/04/07 11:41:08;;;;;;;;;;;23.80;52.20;;;;;;5056121;28;20011;-48
2022/04/07 11:43:36;;;;;;;;;;;23.80;52.20;;;;;;5087523;28;20016;-51
2022/04/07 11:46:04;;;;;;;;;;;23.80;52.10;;;;;;5093478;28;19989;-50
2022/04/07 11:48:52;;;;;;;;;;;23.80;52.70;;;;;;5093401;28;19924;-57
2022/04/07 11:51:19;;;;;;;;;;;23.80;52.00;;;;;;5093129;28;19924;-50
2022/04/07 11:53:52;;;;;;;;;;;23.80;52.00;;;;;;5094031;28;20356;-50
2022/04/07 11:56:20;;;;;;;;;;;23.70;52.00;;;;;;5093564;28;19924;-50
2022/04/07 11:58:53;;;;;;;;;;;23.70;52.00;;;;;;5093597;28;19924;-48
2022/04/07 12:01:20;;;;;;;;;;;23.70;52.10;;;;;;5080314;28;19928;-51
2022/04/07 12:03:52;;;;;;;;;;;23.60;52.10;;;;;;5073006;28;19925;-48
2022/04/07 12:06:23;;;;;;;;;;;23.60;52.00;;;;;;5073049;28;19928;-59
2022/04/07 12:08:51;;;;;;;;;;;23.60;52.00;;;;;;5073438;28;19928;-54
2022/04/07 12:11:19;;;;;;;;;;;23.60;52.00;;;;;;5073020;28;20338;-52
2022/04/07 12:13:50;;;;;;;;;;;23.60;52.00;;;;;;5072787;28;20024;-56
2022/04/07 12:16:17;;;;;;;;;;;23.60;52.00;;;;;;5085855;28;19977;-53
2022/04/07 12:18:54;;;;;;;;;;;23.60;52.00;;;;;;5077235;28;19946;-56
2022/04/07 12:21:25;;;;;;;;;;;23.50;51.90;;;;;;5097347;28;19963;-53
2022/04/07 12:24:05;;;;;;;;;;;23.50;51.90;;;;;;5097192;28;20433;-54
2022/04/07 12:26:48;;;;;;;;;;;23.50;51.90;;;;;;5097616;28;19924;-57
2022/04/07 12:29:18;;;;;;;;;;;23.50;51.90;;;;;;5097068;28;19924;-59
2022/04/07 12:31:45;;;;;;;;;;;23.50;51.80;;;;;;5095903;28;19931;-56
2022/04/07 12:34:19;;;;;;;;;;;23.50;51.90;;;;;;5097254;28;19924;-53
2022/04/07 12:36:46;;;;;;;;;;;23.50;52.00;;;;;;5097133;28;20016;-53
2022/04/07 12:39:18;;;;;;;;;;;23.40;51.90;;;;;;5079403;28;19930;-53
2022/04/07 12:41:47;;;;;;;;;;;23.40;51.90;;;;;;5078098;28;19924;-51
2022/04/07 12:44:21;;;;;;;;;;;23.40;51.80;;;;;;5097303;28;19960;-62
2022/04/07 12:46:49;;;;;;;;;;;23.40;51.90;;;;;;5095720;28;19925;-59
2022/04/07 12:49:23;;;;;;;;;;;23.40;51.80;;;;;;5097026;28;20387;-57
2022/04/07 12:52:00;;;;;;;;;;;23.40;51.80;;;;;;5096946;28;20186;-51
2022/04/07 12:54:26;;;;;;;;;;;23.40;51.80;;;;;;5078613;28;19928;-60
2022/04/07 12:57:06;;;;;;;;;;;23.40;51.80;;;;;;5097142;28;19924;-49
2022/04/07 12:59:33;;;;;;;;;;;23.40;51.70;;;;;;5096162;28;20391;-55
2022/04/07 13:02:00;;;;;;;;;;;23.40;51.60;;;;;;5096162;28;19981;-53
2022/04/07 13:04:45;;;;;;;;;;;23.50;51.50;;;;;;5078783;28;20002;-52
2022/04/07 13:07:12;;;;;;;;;;;23.50;51.50;;;;;;5096431;28;19928;-50
2022/04/07 13:09:40;;;;;;;;;;;23.50;51.40;;;;;;5096496;28;20356;-56
2022/04/07 13:12:07;;;;;;;;;;;23.50;51.30;;;;;;5096500;28;19974;-56
2022/04/07 13:14:34;;;;;;;;;;;23.50;51.30;;;;;;5096154;28;19928;-51
2022/04/07 13:17:02;;;;;;;;;;;23.50;51.30;;;;;;5095450;28;19928;-60
2022/04/07 13:19:29;;;;;;;;;;;23.50;51.20;;;;;;5096342;28;20011;-55
2022/04/07 13:21:56;;;;;;;;;;;23.60;51.20;;;;;;5095876;28;19928;-53
2022/04/07 13:24:23;;;;;;;;;;;23.60;51.10;;;;;;5096211;28;20375;-58
2022/04/07 13:26:50;;;;;;;;;;;23.60;51.10;;;;;;5095505;28;20433;-51
2022/04/07 13:29:18;;;;;;;;;;;23.60;51.00;;;;;;5096148;28;20364;-51
2022/04/07 13:31:45;;;;;;;;;;;23.60;50.90;;;;;;5094962;28;20287;-51
2022/04/07 13:34:14;;;;;;;;;;;23.60;50.90;;;;;;5096511;28;19989;-49
2022/04/07 13:36:41;;;;;;;;;;;23.60;50.90;;;;;;5096157;28;19997;-49
2022/04/07 13:39:09;;;;;;;;;;;23.60;50.90;;;;;;5096007;28;19924;-50
2022/04/07 13:41:36;;;;;;;;;;;23.60;50.90;;;;;;5095640;28;19928;-61
2022/04/07 13:44:03;;;;;;;;;;;23.60;50.80;;;;;;5076826;28;19925;-59
2022/04/07 13:46:30;;;;;;;;;;;23.60;50.80;;;;;;5080247;28;19924;-53
2022/04/07 13:48:57;;;;;;;;;;;23.60;50.70;;;;;;5095703;28;19924;-52
2022/04/07 13:51:24;;;;;;;;;;;23.60;50.70;;;;;;5095308;28;19955;-52
2022/04/07 13:53:51;;;;;;;;;;;23.60;50.70;;;;;;5095575;28;19974;-55
2022/04/07 13:56:18;;;;;;;;;;;23.60;50.60;;;;;;5095636;28;19993;-54
2022/04/07 13:58:45;;;;;;;;;;;23.60;50.60;;;;;;5090234;28;19963;-50
2022/04/07 14:01:13;;;;;;;;;;;23.60;50.60;;;;;;5088378;28;19932;-51
2022/04/07 14:03:40;;;;;;;;;;;23.60;50.50;;;;;;5089125;28;19974;-47
2022/04/07 14:06:07;;;;;;;;;;;23.60;50.50;;;;;;5089781;28;20301;-50
2022/04/07 14:08:34;;;;;;;;;;;23.60;50.50;;;;;;5079530;28;20023;-61
2022/04/07 14:11:01;;;;;;;;;;;23.60;50.50;;;;;;5086599;28;19923;-49
2022/04/07 14:13:29;;;;;;;;;;;23.60;50.50;;;;;;5078962;28;19959;-60
2022/04/07 14:15:56;;;;;;;;;;;23.60;50.50;;;;;;5092185;28;19925;-58
2022/04/07 14:18:23;;;;;;;;;;;23.60;50.40;;;;;;5093356;28;19931;-52
2022/04/07 14:20:51;;;;;;;;;;;23.60;50.40;;;;;;5079017;28;19974;-50
2022/04/07 14:23:18;;;;;;;;;;;23.60;50.40;;;;;;5093086;28;19956;-55
2022/04/07 14:25:45;;;;;;;;;;;23.60;50.40;;;;;;5095047;28;20367;-49
2022/04/07 14:28:18;;;;;;;;;;;23.60;50.40;;;;;;5095109;28;19953;-55
2022/04/07 14:30:49;;;;;;;;;;;23.60;50.40;;;;;;5094997;28;19969;-50
2022/04/07 14:33:17;;;;;;;;;;;23.60;50.40;;;;;;5094099;28;19967;-56
2022/04/07 14:35:44;;;;;;;;;;;23.60;50.40;;;;;;5093687;28;20018;-55
2022/04/07 14:38:11;;;;;;;;;;;23.50;50.30;;;;;;5074981;28;20011;-55
2022/04/07 14:40:40;;;;;;;;;;;23.50;50.30;;;;;;5074754;28;19928;-53
2022/04/07 14:43:07;;;;;;;;;;;23.60;50.30;;;;;;5073962;28;19924;-59
2022/04/07 14:45:37;;;;;;;;;;;23.60;50.20;;;;;;5074744;28;19928;-51
2022/04/07 14:48:05;;;;;;;;;;;23.60;50.20;;;;;;5086787;28;20371;-50
2022/04/07 14:50:34;;;;;;;;;;;23.60;50.10;;;;;;5094553;28;20376;-56
2022/04/07 14:53:01;;;;;;;;;;;23.60;50.10;;;;;;5075152;28;20445;-52
2022/04/07 14:55:28;;;;;;;;;;;23.60;50.00;;;;;;5074556;28;19925;-52
2022/04/07 14:57:55;;;;;;;;;;;23.60;50.00;;;;;;5073859;28;19925;-48
2022/04/07 15:00:22;;;;;;;;;;;23.60;50.00;;;;;;5074171;28;20471;-53
2022/04/07 15:02:49;;;;;;;;;;;23.60;50.00;;;;;;5083553;28;20018;-53
2022/04/07 15:05:16;;;;;;;;;;;23.60;50.00;;;;;;5094450;28;20006;-53
2022/04/07 15:07:43;;;;;;;;;;;23.50;50.00;;;;;;5075495;28;19924;-49
2022/04/07 15:10:10;;;;;;;;;;;23.50;50.00;;;;;;5076436;28;19978;-48
2022/04/07 15:12:37;;;;;;;;;;;23.50;50.10;;;;;;5094285;28;20387;-49
2022/04/07 15:15:04;;;;;;;;;;;23.50;50.00;;;;;;5094285;28;19970;-51
2022/04/07 15:17:32;;;;;;;;;;;23.50;50.10;;;;;;5092971;28;19928;-48
2022/04/07 15:19:58;;;;;;;;;;;23.50;50.10;;;;;;5094479;28;19928;-51
2022/04/07 15:22:25;;;;;;;;;;;23.50;50.00;;;;;;5093538;28;19961;-53
2022/04/07 15:24:52;;;;;;;;;;;23.50;50.00;;;;;;5094126;28;20418;-47
2022/04/07 15:27:25;;;;;;;;;;;23.50;50.00;;;;;;5094650;28;19931;-52
2022/04/07 15:29:51;;;;;;;;;;;23.50;49.90;;;;;;5094093;28;20338;-52
2022/04/07 15:32:18;;;;;;;;;;;23.50;49.90;;;;;;5092796;28;19958;-49
2022/04/07 15:34:46;;;;;;;;;;;23.50;49.90;;;;;;5094099;28;19924;-50